Time;durP1;ratioP1;P1;durP2;ratioP2;P2;SDS_P1;SDS_P2;PMS_P1;PMS_P2;Temp;Humidity;BMP_temperature;BMP_pressure;BME280_temperature;BME280_humidity;BME280_pressure;Samples;Min_cycle;Max_cycle;Signal;HPM_P1;HPM_P2
2021/11/21 00:01:52;;;;;;;17.60;10.75;;;4.70;38.70;;;;;;5082111;28;20044;-67
2021/11/21 00:04:20;;;;;;;21.42;12.05;;;4.70;38.50;;;;;;5078679;28;20048;-67
2021/11/21 00:06:48;;;;;;;18.60;10.95;;;4.80;39.40;;;;;;5081243;28;20052;-67
2021/11/21 00:09:16;;;;;;;20.10;11.57;;;4.70;38.40;;;;;;5086342;28;20132;-68
2021/11/21 00:11:46;;;;;;;18.25;10.75;;;4.70;39.00;;;;;;5079817;28;20052;-68
2021/11/21 00:14:14;;;;;;;21.77;12.25;;;4.60;39.00;;;;;;5081280;28;20052;-67
2021/11/21 00:16:44;;;;;;;18.67;10.80;;;4.70;40.20;;;;;;5080950;28;20067;-68
2021/11/21 00:19:13;;;;;;;18.25;11.85;;;4.50;41.60;;;;;;5084303;28;20136;-68
2021/11/21 00:21:41;;;;;;;21.42;12.20;;;4.60;41.90;;;;;;5083658;28;21329;-68
2021/11/21 00:24:09;;;;;;;21.38;11.77;;;4.50;41.70;;;;;;5081155;28;20041;-67
2021/11/21 00:26:40;;;;;;;22.88;12.10;;;4.30;41.70;;;;;;5079266;28;20050;-67
2021/11/21 00:29:12;;;;;;;17.23;11.00;;;4.30;43.40;;;;;;5083096;28;20125;-67
2021/11/21 00:31:43;;;;;;;20.55;11.50;;;4.40;44.20;;;;;;5081579;28;20664;-67
2021/11/21 00:34:14;;;;;;;21.77;12.10;;;4.50;44.40;;;;;;5073166;28;20467;-67
2021/11/21 00:36:44;;;;;;;20.20;11.63;;;4.50;43.30;;;;;;5082352;28;20083;-67
2021/11/21 00:39:12;;;;;;;22.67;12.82;;;4.50;42.70;;;;;;5080912;28;20067;-68
2021/11/21 00:41:40;;;;;;;19.85;12.82;;;4.50;43.30;;;;;;5081521;28;20438;-68
2021/11/21 00:44:08;;;;;;;19.80;12.00;;;4.50;43.00;;;;;;5081608;28;20135;-68
2021/11/21 00:46:40;;;;;;;19.45;12.18;;;4.40;41.90;;;;;;5075911;28;20040;-68
2021/11/21 00:49:16;;;;;;;18.80;11.50;;;4.50;44.30;;;;;;5084441;28;20044;-67
2021/11/21 00:51:45;;;;;;;19.88;11.40;;;4.30;42.60;;;;;;5081952;28;20254;-67
2021/11/21 00:54:29;;;;;;;22.30;11.43;;;4.40;44.00;;;;;;5080365;28;20083;-67
2021/11/21 00:56:59;;;;;;;22.00;12.07;;;4.20;44.70;;;;;;5085929;28;20056;-67
2021/11/21 00:59:29;;;;;;;20.88;11.48;;;4.30;44.60;;;;;;5079867;28;20037;-69
2021/11/21 01:02:02;;;;;;;19.65;11.55;;;4.30;45.80;;;;;;5085563;28;20078;-68
2021/11/21 01:04:37;;;;;;;22.08;12.43;;;4.30;45.70;;;;;;5075525;28;20143;-67
2021/11/21 01:07:08;;;;;;;22.35;11.80;;;4.20;45.90;;;;;;5080890;28;20051;-68
2021/11/21 01:09:37;;;;;;;21.80;12.48;;;4.10;46.00;;;;;;5087629;28;20158;-68
2021/11/21 01:12:09;;;;;;;21.05;12.10;;;4.20;47.50;;;;;;5088389;28;20489;-68
2021/11/21 01:14:38;;;;;;;22.77;12.13;;;4.40;47.50;;;;;;5080223;28;20543;-68
2021/11/21 01:17:08;;;;;;;19.65;11.25;;;4.40;46.70;;;;;;5081780;28;20499;-67
2021/11/21 01:19:37;;;;;;;21.10;12.35;;;4.50;46.30;;;;;;5086988;28;20471;-68
2021/11/21 01:22:05;;;;;;;21.58;12.93;;;4.30;45.10;;;;;;5081200;28;20131;-67
2021/11/21 01:24:35;;;;;;;22.42;13.18;;;4.20;44.30;;;;;;5083544;28;20040;-68
2021/11/21 01:27:04;;;;;;;23.70;13.73;;;4.30;47.20;;;;;;5088380;28;20067;-67
2021/11/21 01:29:33;;;;;;;22.63;13.32;;;4.30;46.80;;;;;;5083044;28;20040;-68
2021/11/21 01:32:04;;;;;;;24.98;14.60;;;4.00;47.10;;;;;;5084458;28;20083;-67
2021/11/21 01:34:35;;;;;;;26.25;13.63;;;4.10;48.70;;;;;;5077826;28;20289;-67
2021/11/21 01:37:08;;;;;;;23.52;13.30;;;4.10;48.40;;;;;;5084612;28;20039;-68
2021/11/21 01:39:39;;;;;;;23.00;13.65;;;4.10;49.60;;;;;;5087113;28;20044;-68
2021/11/21 01:42:09;;;;;;;21.98;12.80;;;4.20;50.40;;;;;;5083051;28;20509;-68
2021/11/21 01:44:37;;;;;;;23.27;13.70;;;4.30;50.70;;;;;;5073718;28;20131;-67
2021/11/21 01:47:06;;;;;;;29.05;13.50;;;4.20;49.60;;;;;;5084797;28;20109;-68
2021/11/21 01:49:35;;;;;;;30.35;14.48;;;4.10;49.00;;;;;;5085948;28;20125;-67
2021/11/21 01:52:08;;;;;;;28.38;13.70;;;3.90;49.40;;;;;;5085637;28;20043;-67
2021/11/21 01:54:36;;;;;;;25.80;13.82;;;4.10;50.00;;;;;;5084414;28;20514;-67
2021/11/21 01:57:04;;;;;;;24.58;13.35;;;4.10;50.30;;;;;;5085896;28;20123;-67
2021/11/21 01:59:34;;;;;;;22.17;12.85;;;4.10;50.10;;;;;;5086414;28;20050;-68
2021/11/21 02:02:05;;;;;;;23.30;13.00;;;4.20;50.30;;;;;;5084281;28;20053;-67
2021/11/21 02:04:34;;;;;;;23.38;13.13;;;4.20;50.30;;;;;;5079536;28;20517;-67
2021/11/21 02:07:02;;;;;;;23.23;13.48;;;4.00;48.50;;;;;;5084684;28;20072;-67
2021/11/21 02:09:37;;;;;;;26.92;13.88;;;4.00;49.40;;;;;;5087714;28;20044;-67
2021/11/21 02:12:05;;;;;;;23.73;13.00;;;4.00;49.50;;;;;;5081160;28;20159;-67
2021/11/21 02:14:35;;;;;;;24.40;12.98;;;3.90;49.40;;;;;;5082589;28;20052;-67
2021/11/21 02:17:03;;;;;;;23.15;11.95;;;4.00;49.90;;;;;;5085126;28;20055;-67
2021/11/21 02:19:31;;;;;;;19.63;11.30;;;3.90;49.50;;;;;;5085314;28;20066;-67
2021/11/21 02:22:03;;;;;;;21.15;11.80;;;4.10;50.60;;;;;;5086030;28;20093;-68
2021/11/21 02:24:36;;;;;;;;;;;4.00;49.50;;;;;;5082767;28;20040;-68
2021/11/21 02:27:04;;;;;;;18.23;10.82;;;4.10;49.60;;;;;;5083843;28;19946;-68
2021/11/21 02:29:32;;;;;;;20.30;10.98;;;4.20;49.60;;;;;;5085079;28;20043;-68
2021/11/21 02:32:07;;;;;;;18.85;11.15;;;4.20;48.10;;;;;;5081857;28;20044;-67
2021/11/21 02:34:36;;;;;;;20.20;11.07;;;4.00;47.60;;;;;;5079425;28;20738;-67
2021/11/21 02:37:10;;;;;;;21.83;11.85;;;4.00;46.50;;;;;;5084985;28;20052;-68
2021/11/21 02:39:42;;;;;;;19.05;11.38;;;4.00;47.70;;;;;;5079604;28;20048;-68
2021/11/21 02:42:25;;;;;;;22.05;11.50;;;4.00;47.80;;;;;;5081280;28;20079;-68
2021/11/21 02:44:53;;;;;;;21.77;12.27;;;3.90;47.20;;;;;;5079088;28;20492;-68
2021/11/21 02:47:21;;;;;;;21.00;11.48;;;4.10;49.30;;;;;;5075427;28;20527;-68
2021/11/21 02:49:50;;;;;;;22.88;11.52;;;4.10;48.80;;;;;;5086023;28;20062;-68
2021/11/21 02:52:19;;;;;;;20.40;11.13;;;4.10;48.60;;;;;;5081683;28;20078;-68
2021/11/21 02:54:57;;;;;;;19.60;10.93;;;4.20;48.70;;;;;;5078060;28;20482;-67
2021/11/21 02:57:30;;;;;;;17.92;10.10;;;4.30;47.50;;;;;;5086157;28;20118;-67
2021/11/21 02:59:58;;;;;;;15.30;8.90;;;4.20;47.00;;;;;;5082854;28;20056;-67
2021/11/21 03:02:26;;;;;;;15.88;7.68;;;4.20;45.50;;;;;;5081700;28;20080;-68
2021/11/21 03:04:57;;;;;;;16.45;8.65;;;4.20;44.50;;;;;;5074766;28;20101;-68
2021/11/21 03:07:26;;;;;;;13.55;8.13;;;4.30;43.20;;;;;;5082406;28;20040;-68
2021/11/21 03:09:54;;;;;;;14.93;7.90;;;4.30;42.10;;;;;;5083796;28;20467;-67
2021/11/21 03:12:23;;;;;;;16.50;8.75;;;4.20;41.50;;;;;;5085729;28;20509;-67
2021/11/21 03:14:53;;;;;;;15.40;7.50;;;4.40;41.70;;;;;;5078924;28;20071;-67
2021/11/21 03:17:22;;;;;;;14.43;7.75;;;4.40;40.50;;;;;;5081296;28;20040;-66
2021/11/21 03:19:52;;;;;;;15.73;8.80;;;4.30;38.70;;;;;;5083173;28;20127;-67
2021/11/21 03:22:20;;;;;;;15.95;7.40;;;4.10;39.80;;;;;;5080503;28;20055;-68
2021/11/21 03:24:49;;;;;;;16.52;7.13;;;4.20;41.50;;;;;;5080882;28;20048;-68
2021/11/21 03:27:20;;;;;;;14.48;7.13;;;4.20;40.80;;;;;;5081956;28;20127;-68
2021/11/21 03:29:48;;;;;;;15.70;7.72;;;4.10;41.40;;;;;;5075654;28;20131;-68
2021/11/21 03:32:20;;;;;;;13.77;7.93;;;4.10;41.90;;;;;;5085585;28;20526;-68
2021/11/21 03:34:52;;;;;;;16.30;8.38;;;4.20;42.30;;;;;;5080247;28;20514;-68
2021/11/21 03:37:23;;;;;;;15.88;8.45;;;4.10;42.50;;;;;;5078826;28;20044;-69
2021/11/21 03:39:53;;;;;;;15.38;8.18;;;4.10;42.70;;;;;;5084115;28;20074;-68
2021/11/21 03:42:21;;;;;;;15.48;8.25;;;4.20;43.10;;;;;;5083477;28;20138;-67
2021/11/21 03:44:52;;;;;;;14.15;8.15;;;4.30;42.20;;;;;;5078000;28;20043;-68
2021/11/21 03:47:27;;;;;;;14.35;7.72;;;4.20;41.60;;;;;;5083243;28;20127;-67
2021/11/21 03:49:56;;;;;;;14.02;7.25;;;4.40;41.70;;;;;;5082754;28;20048;-67
2021/11/21 03:52:30;;;;;;;14.52;7.90;;;4.30;40.30;;;;;;5075048;28;20044;-68
2021/11/21 03:55:00;;;;;;;21.48;10.93;;;4.30;40.90;;;;;;5071299;28;20040;-67
2021/11/21 03:57:31;;;;;;;22.33;10.82;;;4.40;41.60;;;;;;5084414;28;20043;-68
2021/11/21 04:00:02;;;;;;;16.50;8.25;;;4.40;41.60;;;;;;5079787;28;20056;-67
2021/11/21 04:02:35;;;;;;;15.82;7.97;;;4.40;41.60;;;;;;5082177;28;20127;-67
2021/11/21 04:05:04;;;;;;;16.58;8.25;;;4.30;41.00;;;;;;5073087;28;20036;-66
2021/11/21 04:07:32;;;;;;;12.90;7.05;;;4.30;41.50;;;;;;5082157;28;20048;-67
2021/11/21 04:10:06;;;;;;;14.48;7.57;;;4.20;41.50;;;;;;5081487;28;20142;-67
2021/11/21 04:12:34;;;;;;;15.35;7.13;;;4.20;41.90;;;;;;5079583;28;20185;-66
2021/11/21 04:15:07;;;;;;;15.27;6.95;;;4.20;42.50;;;;;;5040174;28;20048;-67
2021/11/21 04:17:38;;;;;;;14.10;7.65;;;4.20;42.90;;;;;;5084174;28;20411;-67
2021/11/21 04:20:10;;;;;;;13.77;7.65;;;4.20;42.60;;;;;;5078852;28;20099;-69
2021/11/21 04:22:38;;;;;;;16.05;8.18;;;4.30;43.70;;;;;;5081944;28;20139;-67
2021/11/21 04:25:09;;;;;;;15.63;7.68;;;4.30;43.70;;;;;;5075177;28;20119;-67
2021/11/21 04:27:38;;;;;;;15.85;8.23;;;4.40;43.60;;;;;;5083605;28;20144;-67
2021/11/21 04:30:14;;;;;;;17.17;8.75;;;4.40;43.80;;;;;;5083310;28;20803;-67
2021/11/21 04:32:43;;;;;;;17.38;7.93;;;4.30;42.70;;;;;;5080309;28;20036;-66
2021/11/21 04:35:13;;;;;;;17.55;8.75;;;4.30;43.60;;;;;;5079055;28;20059;-66
2021/11/21 04:37:44;;;;;;;17.83;8.68;;;4.40;43.10;;;;;;5088436;28;20063;-67
2021/11/21 04:40:15;;;;;;;16.27;7.65;;;4.40;42.50;;;;;;5083300;28;20064;-67
2021/11/21 04:42:46;;;;;;;13.30;7.30;;;4.40;41.70;;;;;;5081760;28;20036;-67
2021/11/21 04:45:18;;;;;;;16.30;8.45;;;4.30;42.90;;;;;;5082193;28;20176;-67
2021/11/21 04:47:51;;;;;;;15.13;7.90;;;4.40;43.60;;;;;;5090091;28;20055;-68
2021/11/21 04:50:19;;;;;;;17.63;8.02;;;4.30;43.10;;;;;;5084948;28;20048;-68
2021/11/21 04:52:47;;;;;;;15.05;7.32;;;4.40;43.40;;;;;;5082612;28;20055;-67
2021/11/21 04:55:21;;;;;;;16.02;8.32;;;4.40;43.10;;;;;;5082804;28;20531;-67
2021/11/21 04:57:49;;;;;;;13.27;7.72;;;4.40;41.70;;;;;;5086090;28;20123;-67
2021/11/21 05:00:19;;;;;;;15.73;7.43;;;4.30;41.60;;;;;;5087930;28;20068;-68
2021/11/21 05:02:52;;;;;;;16.90;7.97;;;4.50;42.20;;;;;;5087794;28;20138;-68
2021/11/21 05:05:25;;;;;;;13.65;8.00;;;4.50;42.40;;;;;;5082759;28;20036;-68
2021/11/21 05:07:56;;;;;;;13.32;6.75;;;4.40;40.40;;;;;;5088102;28;20072;-66
2021/11/21 05:10:27;;;;;;;14.23;7.97;;;4.50;40.20;;;;;;5084665;28;20136;-67
2021/11/21 05:12:55;;;;;;;12.25;6.47;;;4.50;40.00;;;;;;5084481;28;20070;-67
2021/11/21 05:15:24;;;;;;;10.38;5.72;;;4.50;39.10;;;;;;5085526;28;20040;-67
2021/11/21 05:17:53;;;;;;;12.60;6.82;;;4.40;38.40;;;;;;5087769;28;20052;-67
2021/11/21 05:20:21;;;;;;;15.55;8.13;;;4.30;39.00;;;;;;5084551;28;20044;-67
2021/11/21 05:22:50;;;;;;;14.60;7.05;;;4.40;39.20;;;;;;5088458;28;20464;-67
2021/11/21 05:25:24;;;;;;;13.98;7.85;;;4.30;38.70;;;;;;5082837;28;20036;-66
2021/11/21 05:27:53;;;;;;;14.52;6.90;;;4.40;38.90;;;;;;5082468;28;20502;-66
2021/11/21 05:30:23;;;;;;;13.85;6.85;;;4.40;39.50;;;;;;5087931;28;20036;-66
2021/11/21 05:32:55;;;;;;;13.30;6.90;;;4.50;39.50;;;;;;5085477;28;20048;-66
2021/11/21 05:35:26;;;;;;;13.48;6.95;;;4.40;38.50;;;;;;5071546;28;20148;-66
2021/11/21 05:37:55;;;;;;;11.88;6.80;;;4.40;40.10;;;;;;5081228;28;20056;-67
2021/11/21 05:40:29;;;;;;;12.23;7.03;;;4.50;39.60;;;;;;5082639;28;20103;-67
2021/11/21 05:42:59;;;;;;;13.15;6.85;;;4.20;40.30;;;;;;5085136;28;20190;-67
2021/11/21 05:45:27;;;;;;;14.10;7.35;;;4.20;41.50;;;;;;5081743;28;20567;-67
2021/11/21 05:47:56;;;;;;;12.63;7.60;;;4.10;42.70;;;;;;5083912;28;20123;-67
2021/11/21 05:50:24;;;;;;;14.00;7.35;;;4.30;44.70;;;;;;5087135;28;20427;-67
2021/11/21 05:52:53;;;;;;;13.98;7.68;;;4.30;43.20;;;;;;5085932;28;20055;-66
2021/11/21 05:55:23;;;;;;;16.02;7.05;;;4.20;42.00;;;;;;5081914;28;20056;-67
2021/11/21 05:57:51;;;;;;;13.95;7.22;;;4.30;42.50;;;;;;5086624;28;20036;-66
2021/11/21 06:00:23;;;;;;;12.35;7.53;;;4.20;42.10;;;;;;5082634;28;20079;-67
2021/11/21 06:02:51;;;;;;;16.30;7.65;;;4.10;42.40;;;;;;5080669;28;20123;-67
2021/11/21 06:05:21;;;;;;;14.73;7.70;;;4.20;43.90;;;;;;5080598;28;20586;-66
2021/11/21 06:07:49;;;;;;;15.98;8.40;;;4.30;44.00;;;;;;5083764;28;20122;-67
2021/11/21 06:10:19;;;;;;;16.30;7.22;;;4.20;43.10;;;;;;5084777;28;20047;-67
2021/11/21 06:12:48;;;;;;;13.40;7.35;;;4.10;41.50;;;;;;5084630;28;20137;-66
2021/11/21 06:15:18;;;;;;;13.93;7.72;;;3.90;44.20;;;;;;5080048;28;20051;-67
2021/11/21 06:17:49;;;;;;;14.15;7.18;;;4.00;44.90;;;;;;5086594;28;20827;-67
2021/11/21 06:20:17;;;;;;;13.70;6.97;;;4.10;46.40;;;;;;5081907;28;20194;-66
2021/11/21 06:22:45;;;;;;;16.15;8.02;;;4.10;45.60;;;;;;5077563;28;20052;-67
2021/11/21 06:25:16;;;;;;;16.15;7.72;;;4.20;46.00;;;;;;5082268;28;20043;-67
2021/11/21 06:27:46;;;;;;;15.57;7.93;;;4.20;45.80;;;;;;5083557;28;20071;-67
2021/11/21 06:30:15;;;;;;;15.23;8.18;;;4.00;43.90;;;;;;5083859;28;20071;-67
2021/11/21 06:32:46;;;;;;;17.08;8.10;;;4.10;45.50;;;;;;5086918;28;20564;-66
2021/11/21 06:35:17;;;;;;;18.15;8.65;;;4.10;46.80;;;;;;5079725;28;20511;-67
2021/11/21 06:37:47;;;;;;;21.30;8.77;;;4.00;46.50;;;;;;5085659;28;20511;-67
2021/11/21 06:40:18;;;;;;;15.77;8.80;;;4.00;47.50;;;;;;5083784;28;20047;-67
2021/11/21 06:42:46;;;;;;;19.70;9.10;;;4.00;48.50;;;;;;5082421;28;20047;-68
2021/11/21 06:45:18;;;;;;;18.35;9.57;;;3.90;46.60;;;;;;5082497;28;20063;-67
2021/11/21 06:47:46;;;;;;;21.38;10.45;;;4.00;48.00;;;;;;5082742;28;20071;-67
2021/11/21 06:50:17;;;;;;;20.63;9.38;;;3.90;48.20;;;;;;5081765;28;20056;-67
2021/11/21 06:52:48;;;;;;;19.40;9.73;;;4.00;48.70;;;;;;5086763;28;20044;-66
2021/11/21 06:55:17;;;;;;;20.98;9.48;;;3.90;47.40;;;;;;5079189;28;20715;-66
2021/11/21 06:57:48;;;;;;;26.65;11.68;;;3.90;48.60;;;;;;5084771;28;20054;-67
2021/11/21 07:00:17;;;;;;;23.95;11.30;;;3.90;48.80;;;;;;5084609;28;20123;-67
2021/11/21 07:02:48;;;;;;;29.90;15.40;;;3.90;49.40;;;;;;5081915;28;20043;-67
2021/11/21 07:05:24;;;;;;;39.28;16.92;;;3.90;49.50;;;;;;5081510;28;20039;-69
2021/11/21 07:07:52;;;;;;;36.03;17.33;;;3.90;50.10;;;;;;5085647;28;20170;-68
2021/11/21 07:10:20;;;;;;;37.95;16.38;;;3.80;49.60;;;;;;5078856;28;20385;-68
2021/11/21 07:12:50;;;;;;;34.97;17.60;;;3.80;49.50;;;;;;5085646;28;20048;-67
2021/11/21 07:15:20;;;;;;;37.60;16.73;;;3.70;50.50;;;;;;5079434;28;20052;-67
2021/11/21 07:17:53;;;;;;;39.97;18.50;;;3.70;50.30;;;;;;5086347;28;20037;-67
2021/11/21 07:20:22;;;;;;;36.65;15.40;;;3.70;50.50;;;;;;5082959;28;20464;-67
2021/11/21 07:22:54;;;;;;;32.90;17.65;;;3.70;49.50;;;;;;5077987;28;20076;-67
2021/11/21 07:25:25;;;;;;;34.35;16.15;;;3.50;49.10;;;;;;5078211;28;20049;-67
2021/11/21 07:27:55;;;;;;;36.00;16.25;;;3.60;50.20;;;;;;5085014;28;20446;-67
2021/11/21 07:30:27;;;;;;;32.20;14.85;;;3.60;50.60;;;;;;5082458;28;20411;-67
2021/11/21 07:32:57;;;;;;;34.92;15.82;;;3.50;49.80;;;;;;5082282;28;20524;-67
2021/11/21 07:35:26;;;;;;;38.97;17.08;;;3.50;49.40;;;;;;5052923;28;20044;-67
2021/11/21 07:37:58;;;;;;;31.23;15.85;;;3.40;49.00;;;;;;5085780;28;20503;-66
2021/11/21 07:40:28;;;;;;;33.97;16.65;;;3.50;49.10;;;;;;5085834;28;20070;-68
2021/11/21 07:42:56;;;;;;;31.92;17.25;;;3.50;48.90;;;;;;5079950;28;20112;-67
2021/11/21 07:45:24;;;;;;;34.40;16.38;;;3.60;49.10;;;;;;5078796;28;20074;-68
2021/11/21 07:47:52;;;;;;;38.72;18.92;;;3.40;47.90;;;;;;5086706;28;20514;-67
2021/11/21 07:50:23;;;;;;;38.95;18.77;;;3.40;47.50;;;;;;5079309;28;20033;-67
2021/11/21 07:52:51;;;;;;;37.20;18.67;;;3.40;48.20;;;;;;5082708;28;20124;-68
2021/11/21 07:55:21;;;;;;;40.05;18.95;;;3.40;48.90;;;;;;5078512;28;20055;-67
2021/11/21 07:57:50;;;;;;;44.10;20.30;;;3.40;49.10;;;;;;5081159;28;20238;-67
2021/11/21 08:00:22;;;;;;;39.90;18.77;;;3.50;49.70;;;;;;5082989;28;20102;-67
2021/11/21 08:02:53;;;;;;;40.85;18.17;;;3.50;49.00;;;;;;5083708;28;20089;-66
2021/11/21 08:05:21;;;;;;;32.20;16.95;;;3.40;47.00;;;;;;5077539;28;20400;-67
2021/11/21 08:07:49;;;;;;;33.95;16.73;;;3.50;46.80;;;;;;5087236;28;20040;-67
2021/11/21 08:10:17;;;;;;;31.83;17.05;;;3.40;47.50;;;;;;5082852;28;20411;-67
2021/11/21 08:12:50;;;;;;;31.42;16.60;;;3.50;48.60;;;;;;5080687;28;20115;-68
2021/11/21 08:15:19;;;;;;;33.42;15.82;;;3.40;47.60;;;;;;5082233;28;20516;-66
2021/11/21 08:17:47;;;;;;;37.88;17.75;;;3.50;48.30;;;;;;5078778;28;20068;-67
2021/11/21 08:20:20;;;;;;;36.85;18.08;;;3.60;49.10;;;;;;5082839;28;20080;-67
2021/11/21 08:22:48;;;;;;;31.35;14.55;;;3.60;48.30;;;;;;5085645;28;20127;-66
2021/11/21 08:25:20;;;;;;;29.38;14.70;;;3.50;47.90;;;;;;5078446;28;20042;-67
2021/11/21 08:27:49;;;;;;;29.63;15.20;;;3.60;48.30;;;;;;5084163;28;20128;-67
2021/11/21 08:30:20;;;;;;;29.02;14.88;;;3.60;48.50;;;;;;5084974;28;20048;-68
2021/11/21 08:32:49;;;;;;;30.13;13.45;;;3.60;47.50;;;;;;5082550;28;20040;-67
2021/11/21 08:35:17;;;;;;;27.75;14.52;;;3.60;44.10;;;;;;5080089;28;20044;-67
2021/11/21 08:37:49;;;;;;;28.10;13.48;;;3.60;46.00;;;;;;5083874;28;20066;-67
2021/11/21 08:40:17;;;;;;;26.50;13.30;;;3.70;46.60;;;;;;5080991;28;20502;-66
2021/11/21 08:42:52;;;;;;;26.40;14.25;;;3.60;45.10;;;;;;5085121;28;20044;-68
2021/11/21 08:45:24;;;;;;;25.55;13.57;;;3.70;47.00;;;;;;5078733;28;20044;-67
2021/11/21 08:47:52;;;;;;;27.00;12.73;;;3.80;46.00;;;;;;5083893;28;20094;-68
2021/11/21 08:50:23;;;;;;;21.92;13.27;;;3.70;44.70;;;;;;5082961;28;20082;-67
2021/11/21 08:52:51;;;;;;;22.08;12.52;;;3.80;45.30;;;;;;5082146;28;20079;-67
2021/11/21 08:55:21;;;;;;;25.67;11.80;;;3.80;44.40;;;;;;5079081;28;20048;-67
2021/11/21 08:57:49;;;;;;;22.80;12.20;;;3.80;43.60;;;;;;5084941;28;20132;-68
2021/11/21 09:00:19;;;;;;;20.98;11.52;;;3.80;44.60;;;;;;5079430;28;20406;-66
2021/11/21 09:02:51;;;;;;;23.70;12.52;;;3.70;43.90;;;;;;5072845;28;20041;-68
2021/11/21 09:05:24;;;;;;;24.08;12.85;;;3.70;45.00;;;;;;5079883;28;20774;-67
2021/11/21 09:08:13;;;;;;;25.27;12.70;;;3.80;45.00;;;;;;5082833;28;20172;-68
2021/11/21 09:10:43;;;;;;;26.80;12.68;;;3.90;45.80;;;;;;5082680;28;20222;-68
2021/11/21 09:13:12;;;;;;;25.15;12.57;;;3.70;45.00;;;;;;5080646;28;20047;-67
2021/11/21 09:15:42;;;;;;;27.25;12.98;;;3.70;46.00;;;;;;5078465;28;20127;-68
2021/11/21 09:18:10;;;;;;;25.88;12.88;;;3.70;47.80;;;;;;5086132;28;20045;-67
2021/11/21 09:20:40;;;;;;;26.98;13.25;;;3.60;48.10;;;;;;5080451;28;20036;-68
2021/11/21 09:23:11;;;;;;;22.17;12.90;;;3.70;49.10;;;;;;5083597;28;20106;-68
2021/11/21 09:25:40;;;;;;;25.63;13.38;;;3.80;49.30;;;;;;5081706;28;20742;-66
2021/11/21 09:28:09;;;;;;;22.90;12.68;;;3.80;49.30;;;;;;5083299;28;20067;-67
2021/11/21 09:30:37;;;;;;;31.75;14.48;;;3.60;49.10;;;;;;5085643;28;20131;-67
2021/11/21 09:33:13;;;;;;;26.30;12.68;;;3.60;49.10;;;;;;5083350;28;20051;-68
2021/11/21 09:35:45;;;;;;;28.40;12.52;;;3.50;49.10;;;;;;5082762;28;20044;-67
2021/11/21 09:38:15;;;;;;;26.58;11.75;;;3.50;49.10;;;;;;5082365;28;20071;-67
2021/11/21 09:40:48;;;;;;;27.52;13.95;;;3.60;49.60;;;;;;5083301;28;20178;-68
2021/11/21 09:43:16;;;;;;;28.73;13.63;;;3.70;49.30;;;;;;5086045;28;20044;-67
2021/11/21 09:45:49;;;;;;;22.08;11.88;;;3.60;49.10;;;;;;5082879;28;20122;-66
2021/11/21 09:48:21;;;;;;;25.67;12.93;;;3.60;49.20;;;;;;5087330;28;20063;-67
2021/11/21 09:50:56;;;;;;;26.08;13.27;;;3.60;49.10;;;;;;5086248;28;20081;-66
2021/11/21 09:53:25;;;;;;;25.38;12.57;;;3.50;48.90;;;;;;5076612;28;20143;-67
2021/11/21 09:55:55;;;;;;;22.90;11.32;;;3.70;49.20;;;;;;5083364;28;20048;-67
2021/11/21 09:58:23;;;;;;;22.25;10.73;;;3.70;49.20;;;;;;5086842;28;20062;-68
2021/11/21 10:00:54;;;;;;;22.58;9.77;;;3.50;47.30;;;;;;5084597;28;20724;-67
2021/11/21 10:03:23;;;;;;;20.77;10.35;;;3.50;49.00;;;;;;5083525;28;20154;-67
2021/11/21 10:05:54;;;;;;;22.95;9.90;;;3.60;49.10;;;;;;5083907;28;20055;-67
2021/11/21 10:08:24;;;;;;;23.17;10.13;;;3.60;46.60;;;;;;5085028;28;20036;-67
2021/11/21 10:11:05;;;;;;;21.90;9.80;;;3.60;47.80;;;;;;5087502;28;20040;-69
2021/11/21 10:13:36;;;;;;;24.00;10.23;;;3.60;47.60;;;;;;5079020;28;20106;-66
2021/11/21 10:16:31;;;;;;;19.02;9.43;;;3.60;48.20;;;;;;5082658;28;20040;-67
2021/11/21 10:19:02;;;;;;;16.75;8.63;;;3.60;48.50;;;;;;5086322;28;20508;-67
2021/11/21 10:21:32;;;;;;;18.77;9.43;;;3.60;47.70;;;;;;5084574;28;20123;-66
2021/11/21 10:24:15;;;;;;;18.60;9.55;;;3.50;47.90;;;;;;5080708;28;20048;-67
2021/11/21 10:26:43;;;;;;;18.15;8.13;;;3.60;47.70;;;;;;5081517;28;20097;-68
2021/11/21 10:29:31;;;;;;;13.95;7.68;;;3.70;47.40;;;;;;5084107;28;20052;-66
2021/11/21 10:32:14;;;;;;;12.10;6.75;;;3.70;45.40;;;;;;5082034;28;20040;-67
2021/11/21 10:34:51;;;;;;;14.57;7.57;;;3.60;43.00;;;;;;5081981;28;20047;-67
2021/11/21 10:37:29;;;;;;;15.23;6.47;;;3.60;44.00;;;;;;5085096;28;20053;-66
2021/11/21 10:40:07;;;;;;;12.45;6.88;;;3.50;42.40;;;;;;5082693;28;20086;-67
2021/11/21 10:42:36;;;;;;;12.73;5.35;;;3.60;43.30;;;;;;5086053;28;20052;-67
2021/11/21 10:45:06;;;;;;;13.35;6.80;;;3.50;41.00;;;;;;5062540;28;20123;-67
2021/11/21 10:47:44;;;;;;;10.57;5.65;;;3.50;41.00;;;;;;5061149;28;20310;-67
2021/11/21 10:50:29;;;;;;;10.52;6.00;;;3.70;42.00;;;;;;5065913;28;20052;-68
2021/11/21 10:52:59;;;;;;;11.93;6.30;;;3.70;41.10;;;;;;5062210;28;20057;-68
2021/11/21 10:55:27;;;;;;;11.77;6.28;;;3.70;39.10;;;;;;5056518;28;20123;-68
2021/11/21 10:57:55;;;;;;;10.48;5.57;;;3.70;38.20;;;;;;5064742;28;20040;-67
2021/11/21 11:00:26;;;;;;;10.43;6.07;;;3.60;38.80;;;;;;5083242;28;20115;-68
2021/11/21 11:02:54;;;;;;;16.92;6.97;;;3.90;40.00;;;;;;5064326;28;20700;-67
2021/11/21 11:05:27;;;;;;;10.98;6.00;;;3.90;38.40;;;;;;5061920;28;20051;-67
2021/11/21 11:07:58;;;;;;;15.32;8.18;;;3.90;36.90;;;;;;5058689;28;20119;-69
2021/11/21 11:10:27;;;;;;;18.02;8.18;;;4.00;37.40;;;;;;5061935;28;20135;-67
2021/11/21 11:13:00;;;;;;;13.98;8.60;;;4.00;37.40;;;;;;5066550;28;20052;-67
2021/11/21 11:15:29;;;;;;;20.05;10.68;;;4.10;36.80;;;;;;5058121;28;20500;-67
2021/11/21 11:18:02;;;;;;;18.55;10.55;;;4.00;35.10;;;;;;5065399;28;20079;-67
2021/11/21 11:20:31;;;;;;;21.33;12.68;;;3.90;37.10;;;;;;5063677;28;20048;-68
2021/11/21 11:23:00;;;;;;;19.30;9.93;;;4.10;38.20;;;;;;5062132;28;20531;-67
2021/11/21 11:25:32;;;;;;;17.13;9.02;;;4.20;36.80;;;;;;5059282;28;20047;-68
2021/11/21 11:28:11;;;;;;;17.35;9.40;;;4.30;37.50;;;;;;5064750;28;20045;-68
2021/11/21 11:30:42;;;;;;;16.10;8.32;;;4.40;35.80;;;;;;5060677;28;20466;-67
2021/11/21 11:33:13;;;;;;;13.90;7.30;;;4.50;35.70;;;;;;5064021;28;20060;-68
2021/11/21 11:35:44;;;;;;;12.68;7.13;;;4.40;33.40;;;;;;5059627;28;20054;-69
2021/11/21 11:38:19;;;;;;;13.68;6.70;;;4.40;32.50;;;;;;5062595;28;20059;-68
2021/11/21 11:40:53;;;;;;;11.32;6.70;;;4.20;30.90;;;;;;5059588;28;20048;-67
2021/11/21 11:43:36;;;;;;;13.57;6.75;;;4.40;32.30;;;;;;5057785;28;20123;-67
2021/11/21 11:46:09;;;;;;;11.82;6.57;;;4.50;33.40;;;;;;5058443;28;20127;-66
2021/11/21 11:48:48;;;;;;;11.02;6.25;;;4.40;30.00;;;;;;5063585;28;20080;-68
2021/11/21 11:51:22;;;;;;;12.23;6.65;;;4.30;30.80;;;;;;5062374;28;20072;-67
2021/11/21 11:53:51;;;;;;;13.80;7.93;;;4.30;30.70;;;;;;5056230;28;20072;-67
2021/11/21 11:56:26;;;;;;;10.77;6.22;;;4.40;29.80;;;;;;5066364;28;20086;-67
2021/11/21 11:58:57;;;;;;;10.15;6.47;;;4.30;29.30;;;;;;5065797;28;20106;-66
2021/11/21 12:01:54;;;;;;;12.40;7.45;;;4.20;29.60;;;;;;5060621;28;20033;-67
2021/11/21 12:04:50;;;;;;;13.63;7.22;;;4.30;30.10;;;;;;5056609;28;20032;-66
2021/11/21 12:07:24;;;;;;;20.48;10.32;;;4.60;30.00;;;;;;5069011;28;20055;-67
2021/11/21 12:10:03;;;;;;;13.38;7.80;;;4.50;27.50;;;;;;5081767;28;20040;-66
2021/11/21 12:13:08;;;;;;;13.38;7.80;;;4.60;27.60;;;;;;5082928;28;20039;-66
2021/11/21 12:15:45;;;;;;;17.38;9.20;;;4.70;26.30;;;;;;5011376;28;21010;-67
2021/11/21 12:18:15;;;;;;;12.18;6.80;;;4.80;27.10;;;;;;5064454;28;20060;-67
2021/11/21 12:20:46;;;;;;;9.23;5.68;;;4.90;26.30;;;;;;5059731;28;20136;-67
2021/11/21 12:23:57;;;;;;;9.93;6.13;;;5.00;23.80;;;;;;5060957;28;20131;-67
2021/11/21 12:26:33;;;;;;;9.98;5.68;;;5.00;22.20;;;;;;5059870;28;20135;-68
2021/11/21 12:29:07;;;;;;;10.25;6.07;;;5.00;23.10;;;;;;5060247;28;20040;-68
2021/11/21 12:31:37;;;;;;;8.73;5.10;;;5.00;23.00;;;;;;5068363;28;20165;-68
2021/11/21 12:34:35;;;;;;;11.50;5.63;;;5.00;23.00;;;;;;5077929;28;20051;-68
2021/11/21 12:37:32;;;;;;;9.55;5.47;;;5.10;21.10;;;;;;5078725;28;20520;-67
2021/11/21 12:40:20;;;;;;;9.43;6.40;;;5.00;22.20;;;;;;5071797;28;20052;-67
2021/11/21 12:42:55;;;;;;;8.00;5.05;;;4.80;22.70;;;;;;5082957;28;20036;-68
2021/11/21 12:45:26;;;;;;;10.30;5.65;;;4.80;22.40;;;;;;5078902;28;20076;-67
2021/11/21 12:47:56;;;;;;;7.88;5.20;;;4.90;22.20;;;;;;5080405;28;20044;-67
2021/11/21 12:50:26;;;;;;;9.45;5.40;;;5.00;21.90;;;;;;5082219;28;20058;-68
2021/11/21 12:52:59;;;;;;;8.15;5.32;;;5.10;22.20;;;;;;5080450;28;20048;-68
2021/11/21 12:55:31;;;;;;;7.97;4.90;;;5.00;21.10;;;;;;5073745;28;20135;-69
2021/11/21 12:58:04;;;;;;;7.72;5.25;;;4.90;21.70;;;;;;5084286;28;20056;-67
2021/11/21 13:00:34;;;;;;;8.00;5.55;;;4.80;22.20;;;;;;5084374;28;20062;-70
2021/11/21 13:03:08;;;;;;;11.82;6.82;;;4.90;22.50;;;;;;5084221;28;20044;-67
2021/11/21 13:05:44;;;;;;;10.40;5.30;;;4.90;21.20;;;;;;5086179;28;20040;-68